createdAt,value
2022-08-16T00:01:41.081Z,99.90
2022-08-16T00:04:13.605Z,99.90
2022-08-16T00:06:45.520Z,99.90
2022-08-16T00:09:17.690Z,99.90
2022-08-16T00:11:52.829Z,99.90
2022-08-16T00:14:31.631Z,99.90
2022-08-16T00:17:18.337Z,99.90
2022-08-16T00:19:53.435Z,99.90
2022-08-16T00:22:27.884Z,99.90
2022-08-16T00:24:59.971Z,99.90
2022-08-16T00:27:31.911Z,99.90
2022-08-16T00:30:19.204Z,99.90
2022-08-16T00:32:57.067Z,99.90
2022-08-16T00:35:35.447Z,99.90
2022-08-16T00:38:41.431Z,99.90
2022-08-16T00:41:01.935Z,99.90
2022-08-16T00:43:42.901Z,99.90
2022-08-16T00:46:33.960Z,99.90
2022-08-16T00:49:18.661Z,99.90
2022-08-16T00:51:55.145Z,99.90
2022-08-16T00:54:30.797Z,99.90
2022-08-16T00:57:05.755Z,99.90
2022-08-16T00:59:54.613Z,99.90
2022-08-16T01:02:33.201Z,99.90
2022-08-16T01:05:11.018Z,99.90
2022-08-16T01:07:51.617Z,99.90
2022-08-16T01:10:32.293Z,99.90
2022-08-16T01:13:15.177Z,99.90
2022-08-16T01:15:53.665Z,99.90
2022-08-16T01:18:39.860Z,99.90
2022-08-16T01:21:41.857Z,99.90
2022-08-16T01:24:52.921Z,99.90
2022-08-16T01:27:34.433Z,99.90
2022-08-16T01:30:32.360Z,99.90
2022-08-16T01:33:15.440Z,99.90
2022-08-16T01:36:09.467Z,99.90
2022-08-16T01:38:56.926Z,99.90
2022-08-16T01:41:31.355Z,99.90
2022-08-16T01:44:06.672Z,99.90
2022-08-16T01:46:42.507Z,99.90
2022-08-16T01:49:22.417Z,99.90
2022-08-16T01:52:29.424Z,99.90
2022-08-16T01:55:35.666Z,99.90
2022-08-16T01:58:12.198Z,99.90
2022-08-16T02:00:45.200Z,99.90
2022-08-16T02:03:24.252Z,99.90
2022-08-16T02:05:57.716Z,99.90
2022-08-16T02:08:33.719Z,99.90
2022-08-16T02:11:08.872Z,99.90
2022-08-16T02:13:42.146Z,99.90
2022-08-16T02:16:18.973Z,99.90
2022-08-16T02:18:53.187Z,99.90
2022-08-16T02:21:31.180Z,99.90
2022-08-16T02:24:04.416Z,99.90
2022-08-16T02:26:56.432Z,99.90
2022-08-16T02:29:32.108Z,99.90
2022-08-16T02:33:02.441Z,99.90
2022-08-16T02:34:57.675Z,99.90
2022-08-16T02:37:51.575Z,99.90
2022-08-16T02:40:25.603Z,99.90
2022-08-16T02:42:57.838Z,99.90
2022-08-16T02:45:29.770Z,99.90
2022-08-16T02:48:28.514Z,99.90
2022-08-16T02:51:06.953Z,99.90
2022-08-16T02:53:46.943Z,99.90
2022-08-16T02:56:20.266Z,99.90
2022-08-16T02:58:53.121Z,99.90
2022-08-16T03:01:36.678Z,99.90
2022-08-16T03:04:39.204Z,99.90
2022-08-16T03:07:10.601Z,99.90
2022-08-16T03:09:47.067Z,99.90
2022-08-16T03:12:30.503Z,99.90
2022-08-16T03:15:13.807Z,99.90
2022-08-16T03:17:53.140Z,99.90
2022-08-16T03:20:32.536Z,99.90
2022-08-16T03:23:08.963Z,99.90
2022-08-16T03:25:44.646Z,99.90
2022-08-16T03:28:18.194Z,99.90
2022-08-16T03:30:52.567Z,99.90
2022-08-16T03:33:29.816Z,99.90
2022-08-16T03:36:30.464Z,99.90
2022-08-16T03:39:01.551Z,99.90
2022-08-16T03:41:49.761Z,99.90
2022-08-16T03:44:44.158Z,99.90
2022-08-16T03:47:19.255Z,99.90
2022-08-16T03:49:53.817Z,99.90
2022-08-16T03:52:29.969Z,99.90
2022-08-16T03:55:05.259Z,99.90
2022-08-16T03:57:43.391Z,99.90
2022-08-16T04:00:35.735Z,99.90
2022-08-16T04:03:18.673Z,99.90
2022-08-16T04:05:51.270Z,99.90
2022-08-16T04:08:27.776Z,99.90
2022-08-16T04:11:05.007Z,99.90
2022-08-16T04:14:00.745Z,99.90
2022-08-16T04:16:32.437Z,99.90
2022-08-16T04:19:21.312Z,99.90
2022-08-16T04:21:56.776Z,99.90
2022-08-16T04:24:31.919Z,99.90
2022-08-16T04:27:09.050Z,99.90
2022-08-16T04:29:46.238Z,99.90
2022-08-16T04:32:20.215Z,99.90
2022-08-16T04:34:56.002Z,99.90
2022-08-16T04:37:27.937Z,99.90
2022-08-16T04:40:21.747Z,99.90
2022-08-16T04:42:55.552Z,99.90
2022-08-16T04:45:36.650Z,99.90
2022-08-16T04:48:22.025Z,99.90
2022-08-16T04:51:11.662Z,99.90
2022-08-16T04:53:50.276Z,99.90
2022-08-16T04:56:24.268Z,99.90
2022-08-16T04:58:57.997Z,99.90
2022-08-16T05:01:58.363Z,99.90
2022-08-16T05:04:23.760Z,99.90
2022-08-16T05:07:01.996Z,99.90
2022-08-16T05:09:53.792Z,99.90
2022-08-16T05:12:30.452Z,99.90
2022-08-16T05:15:06.048Z,99.90
2022-08-16T05:17:42.869Z,99.90
2022-08-16T05:20:35.582Z,99.90
2022-08-16T05:23:14.174Z,99.90
2022-08-16T05:25:49.019Z,99.90
2022-08-16T05:28:22.399Z,99.90
2022-08-16T05:31:03.261Z,99.90
2022-08-16T05:33:39.027Z,99.90
2022-08-16T05:36:14.763Z,99.90
2022-08-16T05:38:53.994Z,99.90
2022-08-16T05:41:26.110Z,99.90
2022-08-16T05:44:01.191Z,99.90
2022-08-16T05:46:45.311Z,99.90
2022-08-16T05:49:23.328Z,99.90
2022-08-16T05:52:01.280Z,99.90
2022-08-16T05:54:34.591Z,99.90
2022-08-16T05:57:07.680Z,99.90
2022-08-16T05:59:59.404Z,99.90
2022-08-16T06:02:34.067Z,99.90
2022-08-16T06:05:10.796Z,99.90
2022-08-16T06:07:43.277Z,99.90
2022-08-16T06:10:32.940Z,99.90
2022-08-16T06:13:08.304Z,99.90
2022-08-16T06:15:42.455Z,99.90
2022-08-16T06:18:14.829Z,99.90
2022-08-16T06:20:55.472Z,99.90
2022-08-16T06:23:28.543Z,99.90
2022-08-16T06:26:08.445Z,99.90
2022-08-16T06:28:46.975Z,99.90
2022-08-16T06:31:29.872Z,99.90
2022-08-16T06:34:03.384Z,99.90
2022-08-16T06:36:59.594Z,99.90
2022-08-16T06:39:34.316Z,99.90
2022-08-16T06:42:11.462Z,99.90
2022-08-16T06:45:00.493Z,99.90
2022-08-16T06:47:53.258Z,99.90
2022-08-16T06:50:29.506Z,98.80
2022-08-16T06:53:08.479Z,98.70
2022-08-16T06:56:14.769Z,98.80
2022-08-16T06:59:11.755Z,99.20
2022-08-16T07:01:55.139Z,98.80
2022-08-16T07:04:36.922Z,98.70
2022-08-16T07:07:23.671Z,98.30
2022-08-16T07:09:55.575Z,97.80
2022-08-16T07:12:46.936Z,98.70
2022-08-16T07:15:20.132Z,98.60
2022-08-16T07:17:57.560Z,98.10
2022-08-16T07:20:36.005Z,97.80
2022-08-16T07:23:21.093Z,97.50
2022-08-16T07:26:25.434Z,97.60
2022-08-16T07:28:58.295Z,98.50
2022-08-16T07:31:37.729Z,98.80
2022-08-16T07:34:13.165Z,98.00
2022-08-16T07:36:45.690Z,97.40
2022-08-16T07:39:33.634Z,97.60
2022-08-16T07:42:06.955Z,96.70
2022-08-16T07:44:50.604Z,95.90
2022-08-16T07:47:24.554Z,95.60
2022-08-16T07:50:05.539Z,95.40
2022-08-16T07:52:41.196Z,96.10
2022-08-16T07:55:16.104Z,96.70
2022-08-16T07:58:00.591Z,97.30
2022-08-16T08:00:36.366Z,96.90
2022-08-16T08:03:11.015Z,96.40
2022-08-16T08:05:47.652Z,96.00
2022-08-16T08:08:50.613Z,96.20
2022-08-16T08:11:13.197Z,95.60
2022-08-16T08:13:53.674Z,95.50
2022-08-16T08:16:30.072Z,95.50
2022-08-16T08:19:04.126Z,96.40
2022-08-16T08:21:56.663Z,96.20
2022-08-16T08:24:53.250Z,95.10
2022-08-16T08:27:26.613Z,94.70
2022-08-16T08:30:49.508Z,94.20
2022-08-16T08:32:58.832Z,95.30
2022-08-16T08:35:36.140Z,95.50
2022-08-16T08:38:09.107Z,94.70
2022-08-16T08:40:46.550Z,93.70
2022-08-16T08:43:18.836Z,93.00
2022-08-16T08:46:02.244Z,92.60
2022-08-16T08:49:00.084Z,92.40
2022-08-16T08:51:41.229Z,92.90
2022-08-16T08:54:18.815Z,94.00
2022-08-16T08:56:55.898Z,93.30
2022-08-16T08:59:40.894Z,93.50
2022-08-16T09:02:16.691Z,94.20
2022-08-16T09:04:56.242Z,94.00
2022-08-16T09:07:30.306Z,93.00
2022-08-16T09:10:23.226Z,93.60
2022-08-16T09:13:01.994Z,93.80
2022-08-16T09:15:44.432Z,94.80
2022-08-16T09:18:25.083Z,94.50
2022-08-16T09:21:01.782Z,93.90
2022-08-16T09:23:36.625Z,93.40
2022-08-16T09:26:45.890Z,94.10
2022-08-16T09:29:16.201Z,93.80
2022-08-16T09:31:57.201Z,94.00
2022-08-16T09:34:29.589Z,92.70
2022-08-16T09:37:02.243Z,92.30
2022-08-16T09:39:50.389Z,91.20
2022-08-16T09:42:22.829Z,91.00
2022-08-16T09:45:12.880Z,92.00
2022-08-16T09:47:56.273Z,91.80
2022-08-16T09:50:36.945Z,91.50
2022-08-16T09:53:16.741Z,92.00
2022-08-16T09:55:52.510Z,91.80
2022-08-16T09:58:37.789Z,92.30
2022-08-16T10:01:13.302Z,92.50
2022-08-16T10:04:02.111Z,93.20
2022-08-16T10:06:35.495Z,93.00
2022-08-16T10:09:11.216Z,91.30
2022-08-16T10:12:11.704Z,90.10
2022-08-16T10:14:51.892Z,90.10
2022-08-16T10:17:26.166Z,88.90
2022-08-16T10:19:58.607Z,90.20
2022-08-16T10:22:30.486Z,90.30
2022-08-16T10:25:03.708Z,91.20
2022-08-16T10:27:47.259Z,91.20
2022-08-16T10:30:25.720Z,91.70
2022-08-16T10:33:00.161Z,91.70
2022-08-16T10:35:32.861Z,90.70
2022-08-16T10:38:06.580Z,90.50
2022-08-16T10:40:41.541Z,90.10
2022-08-16T10:43:18.669Z,90.20
2022-08-16T10:46:00.413Z,89.40
2022-08-16T10:48:33.595Z,90.20
2022-08-16T10:51:05.710Z,90.30
2022-08-16T10:53:39.601Z,90.10
2022-08-16T10:56:52.935Z,90.80
2022-08-16T11:05:08.578Z,90.10
2022-08-16T11:07:45.610Z,90.20
2022-08-16T11:19:14.162Z,90.70
2022-08-16T11:24:44.687Z,90.20
2022-08-16T11:27:23.726Z,90.10
2022-08-16T11:29:57.434Z,90.10
2022-08-16T11:32:32.216Z,90.20
2022-08-16T11:35:14.968Z,89.60
2022-08-16T11:38:46.395Z,90.30
2022-08-16T11:40:53.196Z,90.60
2022-08-16T11:43:28.510Z,90.40
2022-08-16T11:46:43.373Z,90.20
2022-08-16T11:48:55.389Z,90.00
2022-08-16T11:51:27.440Z,89.90
2022-08-16T11:53:59.445Z,90.90
2022-08-16T11:56:39.443Z,90.20
2022-08-16T11:59:24.377Z,90.30
2022-08-16T12:02:11.554Z,90.50
2022-08-16T12:04:53.481Z,90.90
2022-08-16T12:07:25.488Z,90.90
2022-08-16T12:09:57.386Z,91.50
2022-08-16T12:12:29.383Z,91.00
2022-08-16T12:15:05.331Z,91.50
2022-08-16T12:17:39.026Z,91.40
2022-08-16T12:20:18.852Z,91.40
2022-08-16T12:22:51.207Z,91.00
2022-08-16T12:25:26.134Z,91.00
2022-08-16T12:27:58.656Z,90.70
2022-08-16T12:30:38.822Z,91.00
2022-08-16T12:33:25.658Z,90.60
2022-08-16T12:35:58.532Z,90.10
2022-08-16T12:38:41.284Z,90.20
2022-08-16T12:41:25.462Z,88.90
2022-08-16T12:44:01.298Z,89.90
2022-08-16T12:46:34.572Z,89.50
2022-08-16T12:49:11.443Z,90.00
2022-08-16T12:51:59.259Z,89.40
2022-08-16T12:54:31.881Z,89.50
2022-08-16T12:57:14.166Z,88.60
2022-08-16T12:59:46.368Z,88.80
2022-08-16T13:02:22.936Z,88.70
2022-08-16T13:05:08.165Z,89.60
2022-08-16T13:07:45.279Z,90.30
2022-08-16T13:10:37.976Z,88.40
2022-08-16T13:13:11.495Z,88.50
2022-08-16T13:15:55.427Z,89.70
2022-08-16T13:18:34.477Z,88.20
2022-08-16T13:21:10.520Z,89.00
2022-08-16T13:23:43.755Z,88.60
2022-08-16T13:26:17.340Z,88.20
2022-08-16T13:28:50.142Z,87.70
2022-08-16T13:31:23.916Z,87.80
2022-08-16T13:33:58.950Z,89.30
2022-08-16T13:36:48.780Z,87.80
2022-08-16T13:39:24.436Z,89.10
2022-08-16T13:41:56.853Z,89.40
2022-08-16T13:44:48.888Z,88.20
2022-08-16T13:47:21.567Z,88.20
2022-08-16T13:49:56.348Z,87.20
2022-08-16T13:52:33.933Z,87.70
2022-08-16T13:55:15.558Z,88.40
2022-08-16T13:58:34.670Z,87.60
2022-08-16T14:00:42.419Z,87.50
2022-08-16T14:03:14.492Z,87.30
2022-08-16T14:05:51.741Z,87.80
2022-08-16T14:08:27.287Z,87.90
2022-08-16T14:10:59.716Z,86.70
2022-08-16T14:13:34.204Z,85.80
2022-08-16T14:16:24.271Z,85.70
2022-08-16T14:18:56.626Z,86.70
2022-08-16T14:21:35.157Z,86.20
2022-08-16T14:24:16.761Z,86.40
2022-08-16T14:26:59.561Z,86.50
2022-08-16T14:29:38.363Z,85.50
2022-08-16T14:32:21.991Z,85.70
2022-08-16T14:35:07.383Z,86.00
2022-08-16T14:37:43.112Z,84.70
2022-08-16T14:40:18.790Z,85.30
2022-08-16T14:42:52.706Z,85.50
2022-08-16T14:45:28.314Z,85.60
2022-08-16T14:48:02.610Z,85.50
2022-08-16T14:50:37.145Z,86.10
2022-08-16T14:53:09.847Z,84.80
2022-08-16T14:55:41.923Z,84.70
2022-08-16T14:58:19.472Z,86.10
2022-08-16T15:00:51.872Z,85.00
2022-08-16T15:03:24.018Z,85.80
2022-08-16T15:05:55.884Z,86.90
2022-08-16T15:08:36.200Z,86.90
2022-08-16T15:11:09.356Z,86.40
2022-08-16T15:13:41.749Z,85.50
2022-08-16T15:16:14.323Z,86.40
2022-08-16T15:18:46.892Z,86.60
2022-08-16T15:21:18.851Z,86.40
2022-08-16T15:23:51.226Z,86.60
2022-08-16T15:26:34.759Z,87.00
2022-08-16T15:29:17.464Z,86.50
2022-08-16T15:31:49.712Z,85.40
2022-08-16T15:34:33.075Z,85.40
2022-08-16T15:37:05.692Z,86.20
2022-08-16T15:39:39.799Z,84.60
2022-08-16T15:42:27.468Z,85.10
2022-08-16T15:45:02.452Z,86.00
2022-08-16T15:47:43.432Z,85.80
2022-08-16T15:50:27.871Z,86.10
2022-08-16T15:53:03.902Z,85.50
2022-08-16T15:55:35.891Z,86.10
2022-08-16T15:58:38.518Z,85.90
2022-08-16T16:01:00.314Z,85.50
2022-08-16T16:03:34.632Z,84.40
2022-08-16T16:06:07.231Z,84.00
2022-08-16T16:08:41.672Z,84.30
2022-08-16T16:11:15.009Z,85.30
2022-08-16T16:13:46.998Z,85.50
2022-08-16T16:16:23.763Z,85.60
2022-08-16T16:18:55.679Z,84.60
2022-08-16T16:21:27.554Z,85.40
2022-08-16T16:24:03.099Z,83.90
2022-08-16T16:26:51.829Z,85.00
2022-08-16T16:29:23.742Z,84.50
2022-08-16T16:32:00.003Z,83.70
2022-08-16T16:34:33.491Z,83.60
2022-08-16T16:37:09.965Z,84.30
2022-08-16T16:39:42.209Z,85.00
2022-08-16T16:42:25.414Z,85.50
2022-08-16T16:45:04.850Z,86.40
2022-08-16T16:47:41.619Z,86.90
2022-08-16T16:50:16.076Z,86.80
2022-08-16T16:52:53.577Z,86.60
2022-08-16T16:55:27.373Z,87.20
2022-08-16T16:58:35.323Z,87.60
2022-08-16T17:01:09.269Z,87.60
2022-08-16T17:03:42.203Z,87.70
2022-08-16T17:06:14.583Z,88.80
2022-08-16T17:08:47.710Z,89.30
2022-08-16T17:11:24.212Z,89.90
2022-08-16T17:14:02.058Z,89.40
2022-08-16T17:16:34.030Z,89.30
2022-08-16T17:19:16.174Z,89.50
2022-08-16T17:21:50.895Z,89.50
2022-08-16T17:24:31.159Z,89.30
2022-08-16T17:27:11.783Z,89.60
2022-08-16T17:29:51.452Z,90.00
2022-08-16T17:32:34.243Z,89.90
2022-08-16T17:35:34.311Z,90.20
2022-08-16T17:38:09.485Z,90.40
2022-08-16T17:40:52.047Z,90.40
2022-08-16T17:43:33.889Z,90.70
2022-08-16T17:46:41.250Z,90.70
2022-08-16T17:49:01.293Z,90.90
2022-08-16T17:51:34.184Z,91.40
2022-08-16T17:54:06.771Z,91.60
2022-08-16T17:56:38.713Z,91.70
2022-08-16T17:59:10.803Z,91.80
2022-08-16T18:01:42.856Z,91.70
2022-08-16T18:04:14.803Z,91.60
2022-08-16T18:07:06.659Z,91.40
2022-08-16T18:09:40.653Z,91.80
2022-08-16T18:12:45.309Z,92.20
2022-08-16T18:15:12.968Z,92.90
2022-08-16T18:17:44.957Z,93.50
2022-08-16T18:20:35.284Z,94.00
2022-08-16T18:23:21.204Z,94.10
2022-08-16T18:25:56.883Z,94.50
2022-08-16T18:28:30.106Z,94.60
2022-08-16T18:31:04.331Z,94.80
2022-08-16T18:33:43.390Z,95.00
2022-08-16T18:36:20.916Z,95.30
2022-08-16T18:38:53.987Z,95.70
2022-08-16T18:41:26.966Z,96.10
2022-08-16T18:44:26.879Z,96.40
2022-08-16T18:46:51.256Z,96.90
2022-08-16T18:49:23.198Z,97.00
2022-08-16T18:51:59.435Z,97.50
2022-08-16T18:54:32.968Z,97.70
2022-08-16T18:57:08.016Z,98.00
2022-08-16T18:59:40.089Z,98.00
2022-08-16T19:02:56.099Z,98.10
2022-08-16T19:05:04.377Z,98.10
2022-08-16T19:07:36.385Z,98.00
2022-08-16T19:10:08.928Z,98.00
2022-08-16T19:12:42.087Z,98.30
2022-08-16T19:15:18.862Z,98.30
2022-08-16T19:17:50.904Z,98.40
2022-08-16T19:20:25.677Z,98.50
2022-08-16T19:23:10.046Z,98.40
2022-08-16T19:25:52.807Z,98.80
2022-08-16T19:28:49.524Z,98.60
2022-08-16T19:31:26.353Z,98.70
2022-08-16T19:33:58.710Z,98.80
2022-08-16T19:36:35.914Z,99.10
2022-08-16T19:39:14.245Z,99.40
2022-08-16T19:41:52.049Z,99.60
2022-08-16T19:44:27.807Z,99.90
2022-08-16T19:46:59.748Z,99.60
2022-08-16T19:49:31.654Z,99.60
2022-08-16T19:52:31.925Z,99.40
2022-08-16T19:55:07.474Z,99.80
2022-08-16T19:57:39.999Z,99.90
2022-08-16T20:00:15.191Z,99.90
2022-08-16T20:02:52.273Z,99.90
2022-08-16T20:05:30.805Z,99.90
2022-08-16T20:08:04.680Z,99.90
2022-08-16T20:10:37.187Z,99.90
2022-08-16T20:13:20.946Z,99.90
2022-08-16T20:15:52.961Z,99.90
2022-08-16T20:18:25.723Z,99.90
2022-08-16T20:20:57.824Z,99.90
2022-08-16T20:23:29.812Z,99.90
2022-08-16T20:26:01.777Z,99.90
2022-08-16T20:28:52.094Z,99.90
2022-08-16T20:31:26.073Z,99.90
2022-08-16T20:33:57.983Z,99.90
2022-08-16T20:36:30.368Z,99.90
2022-08-16T20:39:04.880Z,99.90
2022-08-16T20:41:36.719Z,99.90
2022-08-16T20:44:10.256Z,99.90
2022-08-16T20:46:42.325Z,99.90
2022-08-16T20:49:14.186Z,99.90
2022-08-16T20:51:49.046Z,99.90
2022-08-16T20:54:23.176Z,99.90
2022-08-16T20:56:58.184Z,99.90
2022-08-16T20:59:30.135Z,99.90
2022-08-16T21:02:02.779Z,99.90
2022-08-16T21:04:34.623Z,99.90
2022-08-16T21:07:06.629Z,99.90
2022-08-16T21:09:38.592Z,99.90
2022-08-16T21:12:14.480Z,99.90
2022-08-16T21:14:50.827Z,99.90
2022-08-16T21:17:22.799Z,99.90
2022-08-16T21:19:54.750Z,99.90
2022-08-16T21:22:26.723Z,99.90
2022-08-16T21:24:59.375Z,99.90
2022-08-16T21:27:31.250Z,99.90
2022-08-16T21:30:05.863Z,99.90
2022-08-16T21:32:41.309Z,99.90
2022-08-16T21:35:16.728Z,99.90
2022-08-16T21:38:09.705Z,99.90
2022-08-16T21:40:41.795Z,99.90
2022-08-16T21:43:16.662Z,99.90
2022-08-16T21:45:54.134Z,99.90
2022-08-16T21:48:34.830Z,99.90
2022-08-16T21:51:10.872Z,99.90
2022-08-16T21:53:43.710Z,99.90
2022-08-16T21:56:16.766Z,99.90
2022-08-16T21:58:52.993Z,99.90
2022-08-16T22:01:26.397Z,99.90
2022-08-16T22:04:09.570Z,99.90
2022-08-16T22:06:50.456Z,99.90
2022-08-16T22:09:22.847Z,99.90
2022-08-16T22:11:54.730Z,99.90
2022-08-16T22:14:26.733Z,99.90
2022-08-16T22:16:59.691Z,99.90
2022-08-16T22:19:31.569Z,99.90
2022-08-16T22:22:03.563Z,99.90
2022-08-16T22:24:35.604Z,99.90
2022-08-16T22:27:07.512Z,99.90
2022-08-16T22:29:42.390Z,99.90
2022-08-16T22:32:14.530Z,99.90
2022-08-16T22:34:46.395Z,99.90
2022-08-16T22:37:18.343Z,99.90
2022-08-16T22:39:50.343Z,99.90
2022-08-16T22:42:23.138Z,99.90
2022-08-16T22:44:55.465Z,99.90
2022-08-16T22:47:27.626Z,99.90
2022-08-16T22:49:59.529Z,99.90
2022-08-16T22:52:50.834Z,99.90
2022-08-16T22:55:26.076Z,99.90
2022-08-16T22:57:58.372Z,99.90
2022-08-16T23:00:33.455Z,99.90
2022-08-16T23:03:09.699Z,99.90
2022-08-16T23:05:50.422Z,99.90
2022-08-16T23:08:39.483Z,99.90
2022-08-16T23:11:22.592Z,99.90
2022-08-16T23:13:56.573Z,99.90
2022-08-16T23:16:33.173Z,99.90
2022-08-16T23:19:08.821Z,99.90
2022-08-16T23:21:44.384Z,99.90
2022-08-16T23:24:20.200Z,99.90
2022-08-16T23:26:52.018Z,99.90
2022-08-16T23:29:26.510Z,99.90
2022-08-16T23:32:10.779Z,99.90
2022-08-16T23:34:42.759Z,99.90
2022-08-16T23:37:15.192Z,99.90
2022-08-16T23:39:47.063Z,99.90
2022-08-16T23:42:41.886Z,99.90
2022-08-16T23:45:11.021Z,99.90
2022-08-16T23:47:42.906Z,99.90
2022-08-16T23:50:15.732Z,99.90
2022-08-16T23:53:07.326Z,99.90
2022-08-16T23:55:46.156Z,99.90
2022-08-16T23:58:23.615Z,99.90
